sensor_id;sensor_type;location;lat;lon;timestamp;temperature;humidity
27224;DHT22;14965;50.660;13.226;2024-03-08T00:00:08;0.10;99.90
27224;DHT22;14965;50.660;13.226;2024-03-08T00:02:36;0.10;99.90
27224;DHT22;14965;50.660;13.226;2024-03-08T00:05:04;0.10;99.90
27224;DHT22;14965;50.660;13.226;2024-03-08T00:07:31;0.10;99.90
27224;DHT22;14965;50.660;13.226;2024-03-08T00:09:57;0.10;99.90
27224;DHT22;14965;50.660;13.226;2024-03-08T00:12:23;0.10;99.90
27224;DHT22;14965;50.660;13.226;2024-03-08T00:14:49;0.10;99.90
27224;DHT22;14965;50.660;13.226;2024-03-08T00:17:15;0.00;99.90
27224;DHT22;14965;50.660;13.226;2024-03-08T00:19:40;0.00;99.90
27224;DHT22;14965;50.660;13.226;2024-03-08T00:22:08;0.00;99.90
27224;DHT22;14965;50.660;13.226;2024-03-08T00:24:34;0.00;99.90
27224;DHT22;14965;50.660;13.226;2024-03-08T00:27:00;0.00;99.90
27224;DHT22;14965;50.660;13.226;2024-03-08T00:29:25;-0.10;99.90
27224;DHT22;14965;50.660;13.226;2024-03-08T00:31:51;-0.10;99.90
27224;DHT22;14965;50.660;13.226;2024-03-08T00:34:17;-0.10;99.90
27224;DHT22;14965;50.660;13.226;2024-03-08T00:36:43;-0.10;99.90
27224;DHT22;14965;50.660;13.226;2024-03-08T00:39:10;-0.10;99.90
27224;DHT22;14965;50.660;13.226;2024-03-08T00:41:36;-0.10;99.90
27224;DHT22;14965;50.660;13.226;2024-03-08T00:44:02;-0.10;99.90
27224;DHT22;14965;50.660;13.226;2024-03-08T00:46:29;-0.10;99.90
27224;DHT22;14965;50.660;13.226;2024-03-08T00:48:54;-0.10;99.90
27224;DHT22;14965;50.660;13.226;2024-03-08T00:51:20;-0.10;99.90
27224;DHT22;14965;50.660;13.226;2024-03-08T00:53:46;-0.10;99.90
27224;DHT22;14965;50.660;13.226;2024-03-08T00:56:13;-0.10;99.90
27224;DHT22;14965;50.660;13.226;2024-03-08T00:58:39;-0.20;99.90
27224;DHT22;14965;50.660;13.226;2024-03-08T01:01:05;-0.20;99.90
27224;DHT22;14965;50.660;13.226;2024-03-08T01:03:31;-0.20;99.90
27224;DHT22;14965;50.660;13.226;2024-03-08T01:05:57;-0.20;99.90
27224;DHT22;14965;50.660;13.226;2024-03-08T01:08:23;-0.20;99.90
27224;DHT22;14965;50.660;13.226;2024-03-08T01:10:49;-0.20;99.90
27224;DHT22;14965;50.660;13.226;2024-03-08T01:13:16;-0.10;99.90
27224;DHT22;14965;50.660;13.226;2024-03-08T01:15:42;-0.10;99.90
27224;DHT22;14965;50.660;13.226;2024-03-08T01:18:08;-0.10;99.90
27224;DHT22;14965;50.660;13.226;2024-03-08T01:20:34;-0.10;99.90
27224;DHT22;14965;50.660;13.226;2024-03-08T01:23:00;-0.10;99.90
27224;DHT22;14965;50.660;13.226;2024-03-08T01:25:26;-0.10;99.90
27224;DHT22;14965;50.660;13.226;2024-03-08T01:27:52;-0.20;99.90
27224;DHT22;14965;50.660;13.226;2024-03-08T01:30:19;-0.20;99.90
27224;DHT22;14965;50.660;13.226;2024-03-08T01:32:45;-0.20;99.90
27224;DHT22;14965;50.660;13.226;2024-03-08T01:35:11;-0.20;99.90
27224;DHT22;14965;50.660;13.226;2024-03-08T01:37:37;-0.20;99.90
27224;DHT22;14965;50.660;13.226;2024-03-08T01:40:03;-0.20;99.90
27224;DHT22;14965;50.660;13.226;2024-03-08T01:42:30;-0.30;99.90
27224;DHT22;14965;50.660;13.226;2024-03-08T01:44:56;-0.30;99.90
27224;DHT22;14965;50.660;13.226;2024-03-08T01:47:23;-0.30;99.90
27224;DHT22;14965;50.660;13.226;2024-03-08T01:49:49;-0.30;99.90
27224;DHT22;14965;50.660;13.226;2024-03-08T01:52:16;-0.30;99.90
27224;DHT22;14965;50.660;13.226;2024-03-08T01:54:42;-0.20;99.90
27224;DHT22;14965;50.660;13.226;2024-03-08T01:57:08;-0.20;99.90
27224;DHT22;14965;50.660;13.226;2024-03-08T01:59:34;-0.20;99.90
27224;DHT22;14965;50.660;13.226;2024-03-08T02:02:01;-0.10;99.90
27224;DHT22;14965;50.660;13.226;2024-03-08T02:04:30;-0.10;99.90
27224;DHT22;14965;50.660;13.226;2024-03-08T02:06:56;-0.10;99.90
27224;DHT22;14965;50.660;13.226;2024-03-08T02:09:22;-0.10;99.90
27224;DHT22;14965;50.660;13.226;2024-03-08T02:11:48;-0.10;99.90
27224;DHT22;14965;50.660;13.226;2024-03-08T02:14:14;-0.10;99.90
27224;DHT22;14965;50.660;13.226;2024-03-08T02:16:39;0.00;99.90
27224;DHT22;14965;50.660;13.226;2024-03-08T02:19:05;0.20;99.90
27224;DHT22;14965;50.660;13.226;2024-03-08T02:21:33;0.20;99.90
27224;DHT22;14965;50.660;13.226;2024-03-08T02:23:59;0.20;99.90
27224;DHT22;14965;50.660;13.226;2024-03-08T02:26:25;0.30;99.90
27224;DHT22;14965;50.660;13.226;2024-03-08T02:28:51;0.40;99.90
27224;DHT22;14965;50.660;13.226;2024-03-08T02:31:17;0.40;99.90
27224;DHT22;14965;50.660;13.226;2024-03-08T02:33:42;0.40;99.90
27224;DHT22;14965;50.660;13.226;2024-03-08T02:36:08;0.30;99.90
27224;DHT22;14965;50.660;13.226;2024-03-08T02:38:36;0.30;99.90
27224;DHT22;14965;50.660;13.226;2024-03-08T02:41:02;0.20;99.90
27224;DHT22;14965;50.660;13.226;2024-03-08T02:43:28;0.30;99.90
27224;DHT22;14965;50.660;13.226;2024-03-08T02:45:53;0.30;99.90
27224;DHT22;14965;50.660;13.226;2024-03-08T02:48:19;0.30;99.90
27224;DHT22;14965;50.660;13.226;2024-03-08T02:50:46;0.30;99.90
27224;DHT22;14965;50.660;13.226;2024-03-08T02:53:12;0.40;99.90
27224;DHT22;14965;50.660;13.226;2024-03-08T02:55:41;0.40;99.90
27224;DHT22;14965;50.660;13.226;2024-03-08T02:58:08;0.40;99.90
27224;DHT22;14965;50.660;13.226;2024-03-08T03:00:34;0.40;99.90
27224;DHT22;14965;50.660;13.226;2024-03-08T03:03:01;0.40;99.90
27224;DHT22;14965;50.660;13.226;2024-03-08T03:05:27;0.40;99.90
27224;DHT22;14965;50.660;13.226;2024-03-08T03:07:52;0.40;99.90
27224;DHT22;14965;50.660;13.226;2024-03-08T03:10:18;0.40;99.90
27224;DHT22;14965;50.660;13.226;2024-03-08T03:12:46;0.40;99.90
27224;DHT22;14965;50.660;13.226;2024-03-08T03:15:13;0.40;99.90
27224;DHT22;14965;50.660;13.226;2024-03-08T03:17:39;0.40;99.90
27224;DHT22;14965;50.660;13.226;2024-03-08T03:20:06;0.40;99.90
27224;DHT22;14965;50.660;13.226;2024-03-08T03:22:33;0.40;99.90
27224;DHT22;14965;50.660;13.226;2024-03-08T03:24:59;0.30;99.90
27224;DHT22;14965;50.660;13.226;2024-03-08T03:27:25;0.30;99.90
27224;DHT22;14965;50.660;13.226;2024-03-08T03:29:52;0.30;99.90
27224;DHT22;14965;50.660;13.226;2024-03-08T03:32:18;0.30;99.90
27224;DHT22;14965;50.660;13.226;2024-03-08T03:34:44;0.20;99.90
27224;DHT22;14965;50.660;13.226;2024-03-08T03:37:10;0.20;99.90
27224;DHT22;14965;50.660;13.226;2024-03-08T03:39:36;0.20;99.90
27224;DHT22;14965;50.660;13.226;2024-03-08T03:42:02;0.10;99.90
27224;DHT22;14965;50.660;13.226;2024-03-08T03:44:28;0.10;99.90
27224;DHT22;14965;50.660;13.226;2024-03-08T03:46:55;0.00;99.90
27224;DHT22;14965;50.660;13.226;2024-03-08T03:49:21;0.00;99.90
27224;DHT22;14965;50.660;13.226;2024-03-08T03:51:47;-0.10;99.90
27224;DHT22;14965;50.660;13.226;2024-03-08T03:54:13;-0.10;99.90
27224;DHT22;14965;50.660;13.226;2024-03-08T03:56:39;-0.10;99.90
27224;DHT22;14965;50.660;13.226;2024-03-08T03:59:05;-0.10;99.90
27224;DHT22;14965;50.660;13.226;2024-03-08T04:01:31;-0.20;99.90
27224;DHT22;14965;50.660;13.226;2024-03-08T04:03:58;-0.10;99.90
27224;DHT22;14965;50.660;13.226;2024-03-08T04:06:24;-0.10;99.90
27224;DHT22;14965;50.660;13.226;2024-03-08T04:08:50;-0.10;99.90
27224;DHT22;14965;50.660;13.226;2024-03-08T04:11:15;-0.20;99.90
27224;DHT22;14965;50.660;13.226;2024-03-08T04:13:41;-0.20;99.90
27224;DHT22;14965;50.660;13.226;2024-03-08T04:16:07;-0.20;99.90
27224;DHT22;14965;50.660;13.226;2024-03-08T04:18:34;-0.20;99.90
27224;DHT22;14965;50.660;13.226;2024-03-08T04:21:01;-0.20;99.90
27224;DHT22;14965;50.660;13.226;2024-03-08T04:23:27;-0.10;99.90
27224;DHT22;14965;50.660;13.226;2024-03-08T04:25:53;-0.20;99.90
27224;DHT22;14965;50.660;13.226;2024-03-08T04:28:19;-0.10;99.90
27224;DHT22;14965;50.660;13.226;2024-03-08T04:30:45;-0.10;99.90
27224;DHT22;14965;50.660;13.226;2024-03-08T04:33:11;-0.10;99.90
27224;DHT22;14965;50.660;13.226;2024-03-08T04:35:37;-0.10;99.90
27224;DHT22;14965;50.660;13.226;2024-03-08T04:38:04;0.00;99.90
27224;DHT22;14965;50.660;13.226;2024-03-08T04:40:30;0.00;99.90
27224;DHT22;14965;50.660;13.226;2024-03-08T04:42:56;0.10;99.90
27224;DHT22;14965;50.660;13.226;2024-03-08T04:45:21;0.10;99.90
27224;DHT22;14965;50.660;13.226;2024-03-08T04:47:47;0.10;99.90
27224;DHT22;14965;50.660;13.226;2024-03-08T04:50:13;0.10;99.90
27224;DHT22;14965;50.660;13.226;2024-03-08T04:52:39;0.10;99.90
27224;DHT22;14965;50.660;13.226;2024-03-08T04:55:07;0.00;99.90
27224;DHT22;14965;50.660;13.226;2024-03-08T04:57:33;0.10;99.90
27224;DHT22;14965;50.660;13.226;2024-03-08T04:59:59;0.10;99.90
27224;DHT22;14965;50.660;13.226;2024-03-08T05:02:25;0.10;99.90
27224;DHT22;14965;50.660;13.226;2024-03-08T05:04:51;0.10;99.90
27224;DHT22;14965;50.660;13.226;2024-03-08T05:07:17;0.10;99.90
27224;DHT22;14965;50.660;13.226;2024-03-08T05:09:43;0.20;99.90
27224;DHT22;14965;50.660;13.226;2024-03-08T05:12:10;0.20;99.90
27224;DHT22;14965;50.660;13.226;2024-03-08T05:14:36;0.20;99.90
27224;DHT22;14965;50.660;13.226;2024-03-08T05:17:02;0.20;99.90
27224;DHT22;14965;50.660;13.226;2024-03-08T05:19:28;0.20;99.90
27224;DHT22;14965;50.660;13.226;2024-03-08T05:21:54;0.30;99.90
27224;DHT22;14965;50.660;13.226;2024-03-08T05:24:19;0.30;99.90
27224;DHT22;14965;50.660;13.226;2024-03-08T05:26:46;0.30;99.90
27224;DHT22;14965;50.660;13.226;2024-03-08T05:29:13;0.30;99.90
27224;DHT22;14965;50.660;13.226;2024-03-08T05:31:46;0.30;99.90
27224;DHT22;14965;50.660;13.226;2024-03-08T05:34:12;0.30;99.90
27224;DHT22;14965;50.660;13.226;2024-03-08T05:36:38;0.20;99.90
27224;DHT22;14965;50.660;13.226;2024-03-08T05:39:04;0.30;99.90
27224;DHT22;14965;50.660;13.226;2024-03-08T05:41:30;0.20;99.90
27224;DHT22;14965;50.660;13.226;2024-03-08T05:43:56;0.20;99.90
27224;DHT22;14965;50.660;13.226;2024-03-08T05:46:23;0.20;99.90
27224;DHT22;14965;50.660;13.226;2024-03-08T05:48:49;0.20;99.90
27224;DHT22;14965;50.660;13.226;2024-03-08T05:51:15;0.20;99.90
27224;DHT22;14965;50.660;13.226;2024-03-08T05:53:41;0.20;99.90
27224;DHT22;14965;50.660;13.226;2024-03-08T05:56:07;0.30;99.90
27224;DHT22;14965;50.660;13.226;2024-03-08T05:58:33;0.30;99.90
27224;DHT22;14965;50.660;13.226;2024-03-08T06:09:06;0.40;99.90
27224;DHT22;14965;50.660;13.226;2024-03-08T06:11:32;0.30;99.90
27224;DHT22;14965;50.660;13.226;2024-03-08T06:13:58;0.40;99.90
27224;DHT22;14965;50.660;13.226;2024-03-08T06:16:24;0.40;99.90
27224;DHT22;14965;50.660;13.226;2024-03-08T06:18:50;0.40;99.90
27224;DHT22;14965;50.660;13.226;2024-03-08T06:21:16;0.40;99.90
27224;DHT22;14965;50.660;13.226;2024-03-08T06:23:41;0.50;99.90
27224;DHT22;14965;50.660;13.226;2024-03-08T06:26:09;0.50;99.90
27224;DHT22;14965;50.660;13.226;2024-03-08T06:28:35;0.60;99.90
27224;DHT22;14965;50.660;13.226;2024-03-08T06:31:01;0.70;99.90
27224;DHT22;14965;50.660;13.226;2024-03-08T06:33:28;0.70;99.90
27224;DHT22;14965;50.660;13.226;2024-03-08T06:35:54;0.70;99.90
27224;DHT22;14965;50.660;13.226;2024-03-08T06:38:21;0.70;99.90
27224;DHT22;14965;50.660;13.226;2024-03-08T06:40:46;0.70;99.90
27224;DHT22;14965;50.660;13.226;2024-03-08T06:43:14;0.70;99.90
27224;DHT22;14965;50.660;13.226;2024-03-08T06:45:40;0.80;99.90
27224;DHT22;14965;50.660;13.226;2024-03-08T06:48:06;0.80;99.90
27224;DHT22;14965;50.660;13.226;2024-03-08T06:50:32;0.90;99.90
27224;DHT22;14965;50.660;13.226;2024-03-08T06:52:58;0.90;99.90
27224;DHT22;14965;50.660;13.226;2024-03-08T06:55:24;1.00;99.90
27224;DHT22;14965;50.660;13.226;2024-03-08T06:57:50;1.00;99.90
27224;DHT22;14965;50.660;13.226;2024-03-08T07:00:18;1.00;99.90
27224;DHT22;14965;50.660;13.226;2024-03-08T07:02:44;1.00;99.90
27224;DHT22;14965;50.660;13.226;2024-03-08T07:05:10;1.00;99.90
27224;DHT22;14965;50.660;13.226;2024-03-08T07:07:36;1.10;99.90
27224;DHT22;14965;50.660;13.226;2024-03-08T07:10:02;1.00;99.90
27224;DHT22;14965;50.660;13.226;2024-03-08T07:12:28;1.10;99.90
27224;DHT22;14965;50.660;13.226;2024-03-08T07:14:54;1.20;99.90
27224;DHT22;14965;50.660;13.226;2024-03-08T07:17:21;1.10;99.90
27224;DHT22;14965;50.660;13.226;2024-03-08T07:19:47;1.10;99.90
27224;DHT22;14965;50.660;13.226;2024-03-08T07:22:13;1.20;99.90
27224;DHT22;14965;50.660;13.226;2024-03-08T07:24:40;1.20;99.90
27224;DHT22;14965;50.660;13.226;2024-03-08T07:27:06;1.20;99.90
27224;DHT22;14965;50.660;13.226;2024-03-08T07:29:32;1.20;99.90
27224;DHT22;14965;50.660;13.226;2024-03-08T07:31:58;1.20;99.90
27224;DHT22;14965;50.660;13.226;2024-03-08T07:34:25;1.30;99.90
27224;DHT22;14965;50.660;13.226;2024-03-08T07:36:51;1.40;99.90
27224;DHT22;14965;50.660;13.226;2024-03-08T07:39:17;1.40;99.90
27224;DHT22;14965;50.660;13.226;2024-03-08T07:41:43;1.50;99.90
27224;DHT22;14965;50.660;13.226;2024-03-08T07:44:09;1.50;99.90
27224;DHT22;14965;50.660;13.226;2024-03-08T07:46:35;1.60;99.90
27224;DHT22;14965;50.660;13.226;2024-03-08T07:49:01;1.60;99.90
27224;DHT22;14965;50.660;13.226;2024-03-08T07:51:28;1.70;99.90
27224;DHT22;14965;50.660;13.226;2024-03-08T07:53:54;1.80;99.90
27224;DHT22;14965;50.660;13.226;2024-03-08T07:56:20;1.90;99.90
27224;DHT22;14965;50.660;13.226;2024-03-08T07:58:46;2.00;99.90
27224;DHT22;14965;50.660;13.226;2024-03-08T08:01:16;2.10;99.90
27224;DHT22;14965;50.660;13.226;2024-03-08T08:03:42;2.10;99.90
27224;DHT22;14965;50.660;13.226;2024-03-08T08:06:08;2.00;99.90
27224;DHT22;14965;50.660;13.226;2024-03-08T08:08:35;1.90;99.90
27224;DHT22;14965;50.660;13.226;2024-03-08T08:11:01;2.00;99.90
27224;DHT22;14965;50.660;13.226;2024-03-08T08:13:27;2.10;99.90
27224;DHT22;14965;50.660;13.226;2024-03-08T08:15:53;2.10;99.90
27224;DHT22;14965;50.660;13.226;2024-03-08T08:18:19;2.10;99.90
27224;DHT22;14965;50.660;13.226;2024-03-08T08:20:45;2.20;99.90
27224;DHT22;14965;50.660;13.226;2024-03-08T08:23:11;2.30;99.90
27224;DHT22;14965;50.660;13.226;2024-03-08T08:25:38;2.40;99.90
27224;DHT22;14965;50.660;13.226;2024-03-08T08:28:04;2.40;99.90
27224;DHT22;14965;50.660;13.226;2024-03-08T08:30:30;2.50;99.90
27224;DHT22;14965;50.660;13.226;2024-03-08T08:32:56;2.50;99.90
27224;DHT22;14965;50.660;13.226;2024-03-08T08:35:22;2.60;99.90
27224;DHT22;14965;50.660;13.226;2024-03-08T08:37:48;2.60;99.90
27224;DHT22;14965;50.660;13.226;2024-03-08T08:40:14;2.70;99.90
27224;DHT22;14965;50.660;13.226;2024-03-08T08:42:41;2.80;99.90
27224;DHT22;14965;50.660;13.226;2024-03-08T08:45:09;2.90;99.90
27224;DHT22;14965;50.660;13.226;2024-03-08T08:47:35;2.90;99.90
27224;DHT22;14965;50.660;13.226;2024-03-08T08:50:01;2.90;99.90
27224;DHT22;14965;50.660;13.226;2024-03-08T08:52:27;2.90;99.90
27224;DHT22;14965;50.660;13.226;2024-03-08T08:54:53;3.00;99.90
27224;DHT22;14965;50.660;13.226;2024-03-08T08:57:28;3.00;99.90
27224;DHT22;14965;50.660;13.226;2024-03-08T08:59:56;3.00;99.90
27224;DHT22;14965;50.660;13.226;2024-03-08T09:02:22;3.10;99.90
27224;DHT22;14965;50.660;13.226;2024-03-08T09:04:48;3.20;99.90
27224;DHT22;14965;50.660;13.226;2024-03-08T09:07:14;3.20;99.90
27224;DHT22;14965;50.660;13.226;2024-03-08T09:09:41;3.40;99.90
27224;DHT22;14965;50.660;13.226;2024-03-08T09:12:08;3.30;99.90
27224;DHT22;14965;50.660;13.226;2024-03-08T09:14:34;3.30;99.90
27224;DHT22;14965;50.660;13.226;2024-03-08T09:17:01;3.20;99.90
27224;DHT22;14965;50.660;13.226;2024-03-08T09:19:27;3.30;99.90
27224;DHT22;14965;50.660;13.226;2024-03-08T09:21:53;3.30;99.90
27224;DHT22;14965;50.660;13.226;2024-03-08T09:24:19;3.40;99.90
27224;DHT22;14965;50.660;13.226;2024-03-08T09:26:45;3.40;99.90
27224;DHT22;14965;50.660;13.226;2024-03-08T09:29:11;3.40;99.90
27224;DHT22;14965;50.660;13.226;2024-03-08T09:31:37;3.50;99.90
27224;DHT22;14965;50.660;13.226;2024-03-08T09:34:04;3.60;99.90
27224;DHT22;14965;50.660;13.226;2024-03-08T09:36:30;3.60;99.90
27224;DHT22;14965;50.660;13.226;2024-03-08T09:38:56;3.70;99.90
27224;DHT22;14965;50.660;13.226;2024-03-08T09:41:22;3.70;99.90
27224;DHT22;14965;50.660;13.226;2024-03-08T09:43:48;3.70;99.90
27224;DHT22;14965;50.660;13.226;2024-03-08T09:46:15;3.70;99.90
27224;DHT22;14965;50.660;13.226;2024-03-08T09:48:41;3.80;99.90
27224;DHT22;14965;50.660;13.226;2024-03-08T09:51:09;3.70;99.90
27224;DHT22;14965;50.660;13.226;2024-03-08T09:53:35;3.80;99.90
27224;DHT22;14965;50.660;13.226;2024-03-08T09:56:01;3.90;99.90
27224;DHT22;14965;50.660;13.226;2024-03-08T09:58:27;4.00;99.90
27224;DHT22;14965;50.660;13.226;2024-03-08T10:00:53;4.10;99.90
27224;DHT22;14965;50.660;13.226;2024-03-08T10:03:19;4.20;99.90
27224;DHT22;14965;50.660;13.226;2024-03-08T10:05:45;4.10;99.90
27224;DHT22;14965;50.660;13.226;2024-03-08T10:08:13;4.20;99.90
27224;DHT22;14965;50.660;13.226;2024-03-08T10:10:39;4.30;99.90
27224;DHT22;14965;50.660;13.226;2024-03-08T10:13:05;4.40;99.90
27224;DHT22;14965;50.660;13.226;2024-03-08T10:15:32;4.50;99.90
27224;DHT22;14965;50.660;13.226;2024-03-08T10:17:58;4.60;99.90
27224;DHT22;14965;50.660;13.226;2024-03-08T10:20:25;4.50;99.90
27224;DHT22;14965;50.660;13.226;2024-03-08T10:22:51;4.60;99.90
27224;DHT22;14965;50.660;13.226;2024-03-08T10:25:19;4.60;99.90
27224;DHT22;14965;50.660;13.226;2024-03-08T10:27:45;4.70;99.90
27224;DHT22;14965;50.660;13.226;2024-03-08T10:30:15;4.70;99.90
27224;DHT22;14965;50.660;13.226;2024-03-08T10:32:42;4.90;99.90
27224;DHT22;14965;50.660;13.226;2024-03-08T10:35:08;5.00;99.90
27224;DHT22;14965;50.660;13.226;2024-03-08T10:37:40;5.00;99.90
27224;DHT22;14965;50.660;13.226;2024-03-08T10:40:15;5.20;99.90
27224;DHT22;14965;50.660;13.226;2024-03-08T10:42:51;5.30;99.90
27224;DHT22;14965;50.660;13.226;2024-03-08T10:45:26;5.30;99.90
27224;DHT22;14965;50.660;13.226;2024-03-08T10:48:08;5.20;99.90
27224;DHT22;14965;50.660;13.226;2024-03-08T10:50:44;5.30;99.90
27224;DHT22;14965;50.660;13.226;2024-03-08T10:53:11;5.30;99.90
27224;DHT22;14965;50.660;13.226;2024-03-08T10:55:42;5.30;99.90
27224;DHT22;14965;50.660;13.226;2024-03-08T10:58:10;5.40;99.90
27224;DHT22;14965;50.660;13.226;2024-03-08T11:00:36;5.60;99.90
27224;DHT22;14965;50.660;13.226;2024-03-08T11:03:03;5.60;99.90
27224;DHT22;14965;50.660;13.226;2024-03-08T11:05:36;5.70;99.90
27224;DHT22;14965;50.660;13.226;2024-03-08T11:08:05;5.80;99.90
27224;DHT22;14965;50.660;13.226;2024-03-08T11:10:48;5.80;99.90
27224;DHT22;14965;50.660;13.226;2024-03-08T11:13:32;5.80;99.90
27224;DHT22;14965;50.660;13.226;2024-03-08T11:15:59;5.70;99.90
27224;DHT22;14965;50.660;13.226;2024-03-08T11:18:25;5.90;99.90
27224;DHT22;14965;50.660;13.226;2024-03-08T11:20:54;6.00;99.90
27224;DHT22;14965;50.660;13.226;2024-03-08T11:23:22;6.00;99.90
27224;DHT22;14965;50.660;13.226;2024-03-08T11:25:50;6.00;99.90
27224;DHT22;14965;50.660;13.226;2024-03-08T11:28:18;6.10;99.90
27224;DHT22;14965;50.660;13.226;2024-03-08T11:30:45;6.20;99.90
27224;DHT22;14965;50.660;13.226;2024-03-08T11:33:12;6.30;99.90
27224;DHT22;14965;50.660;13.226;2024-03-08T11:35:40;6.30;99.90
27224;DHT22;14965;50.660;13.226;2024-03-08T11:38:08;6.20;99.90
27224;DHT22;14965;50.660;13.226;2024-03-08T11:40:34;6.30;99.90
27224;DHT22;14965;50.660;13.226;2024-03-08T11:43:02;6.40;99.90
27224;DHT22;14965;50.660;13.226;2024-03-08T11:45:29;6.40;99.90
27224;DHT22;14965;50.660;13.226;2024-03-08T11:47:55;6.40;99.90
27224;DHT22;14965;50.660;13.226;2024-03-08T11:50:21;6.40;99.90
27224;DHT22;14965;50.660;13.226;2024-03-08T11:52:46;6.30;99.90
27224;DHT22;14965;50.660;13.226;2024-03-08T11:55:12;6.20;99.90
27224;DHT22;14965;50.660;13.226;2024-03-08T11:57:39;6.20;99.90
27224;DHT22;14965;50.660;13.226;2024-03-08T12:00:15;6.30;99.90
27224;DHT22;14965;50.660;13.226;2024-03-08T12:02:42;6.40;99.90
27224;DHT22;14965;50.660;13.226;2024-03-08T12:05:08;6.30;99.90
27224;DHT22;14965;50.660;13.226;2024-03-08T12:07:34;6.40;99.90
27224;DHT22;14965;50.660;13.226;2024-03-08T12:10:20;6.40;99.90
27224;DHT22;14965;50.660;13.226;2024-03-08T12:12:48;6.50;99.90
27224;DHT22;14965;50.660;13.226;2024-03-08T12:15:17;6.50;99.90
27224;DHT22;14965;50.660;13.226;2024-03-08T12:17:44;6.60;99.90
27224;DHT22;14965;50.660;13.226;2024-03-08T12:20:12;6.60;99.90
27224;DHT22;14965;50.660;13.226;2024-03-08T12:22:41;6.60;99.90
27224;DHT22;14965;50.660;13.226;2024-03-08T12:25:09;6.70;99.90
27224;DHT22;14965;50.660;13.226;2024-03-08T12:27:36;6.70;99.90
27224;DHT22;14965;50.660;13.226;2024-03-08T12:30:18;6.70;99.90
27224;DHT22;14965;50.660;13.226;2024-03-08T12:32:54;6.50;99.90
27224;DHT22;14965;50.660;13.226;2024-03-08T12:35:21;6.40;99.90
27224;DHT22;14965;50.660;13.226;2024-03-08T12:37:49;6.20;99.90
27224;DHT22;14965;50.660;13.226;2024-03-08T12:40:16;6.20;99.90
27224;DHT22;14965;50.660;13.226;2024-03-08T12:42:43;6.10;99.90
27224;DHT22;14965;50.660;13.226;2024-03-08T12:45:09;6.20;99.90
27224;DHT22;14965;50.660;13.226;2024-03-08T12:47:36;6.30;99.90
27224;DHT22;14965;50.660;13.226;2024-03-08T12:50:02;6.50;99.90
27224;DHT22;14965;50.660;13.226;2024-03-08T12:52:28;6.50;99.90
27224;DHT22;14965;50.660;13.226;2024-03-08T12:54:54;6.60;99.90
27224;DHT22;14965;50.660;13.226;2024-03-08T12:57:20;6.60;99.90
27224;DHT22;14965;50.660;13.226;2024-03-08T12:59:46;6.60;99.90
27224;DHT22;14965;50.660;13.226;2024-03-08T13:02:12;6.70;99.90
27224;DHT22;14965;50.660;13.226;2024-03-08T13:04:39;6.80;99.90
27224;DHT22;14965;50.660;13.226;2024-03-08T13:07:05;6.90;99.90
27224;DHT22;14965;50.660;13.226;2024-03-08T13:09:31;6.80;99.90
27224;DHT22;14965;50.660;13.226;2024-03-08T13:11:57;6.90;99.90
27224;DHT22;14965;50.660;13.226;2024-03-08T13:14:23;7.00;99.90
27224;DHT22;14965;50.660;13.226;2024-03-08T13:16:49;7.10;99.90
27224;DHT22;14965;50.660;13.226;2024-03-08T13:19:14;7.30;99.90
27224;DHT22;14965;50.660;13.226;2024-03-08T13:21:42;7.30;99.90
27224;DHT22;14965;50.660;13.226;2024-03-08T13:24:08;7.20;99.90
27224;DHT22;14965;50.660;13.226;2024-03-08T13:26:33;7.10;99.90
27224;DHT22;14965;50.660;13.226;2024-03-08T13:28:59;7.20;99.90
27224;DHT22;14965;50.660;13.226;2024-03-08T13:31:26;7.20;99.90
27224;DHT22;14965;50.660;13.226;2024-03-08T13:33:52;6.90;99.90
27224;DHT22;14965;50.660;13.226;2024-03-08T13:36:18;6.90;99.90
27224;DHT22;14965;50.660;13.226;2024-03-08T13:38:46;6.70;99.90
27224;DHT22;14965;50.660;13.226;2024-03-08T13:41:14;6.60;99.90
27224;DHT22;14965;50.660;13.226;2024-03-08T13:43:40;6.50;99.90
27224;DHT22;14965;50.660;13.226;2024-03-08T13:46:06;6.50;99.90
27224;DHT22;14965;50.660;13.226;2024-03-08T13:48:33;6.50;99.90
27224;DHT22;14965;50.660;13.226;2024-03-08T13:50:59;6.50;99.90
27224;DHT22;14965;50.660;13.226;2024-03-08T13:53:25;6.50;99.90
27224;DHT22;14965;50.660;13.226;2024-03-08T13:55:52;6.30;99.90
27224;DHT22;14965;50.660;13.226;2024-03-08T13:58:18;6.20;99.90
27224;DHT22;14965;50.660;13.226;2024-03-08T14:00:44;6.40;99.90
27224;DHT22;14965;50.660;13.226;2024-03-08T14:03:10;6.40;99.90
27224;DHT22;14965;50.660;13.226;2024-03-08T14:05:38;6.40;99.90
27224;DHT22;14965;50.660;13.226;2024-03-08T14:08:05;6.30;99.90
27224;DHT22;14965;50.660;13.226;2024-03-08T14:10:32;6.20;99.90
27224;DHT22;14965;50.660;13.226;2024-03-08T14:12:59;6.10;99.90
27224;DHT22;14965;50.660;13.226;2024-03-08T14:15:25;6.10;99.90
27224;DHT22;14965;50.660;13.226;2024-03-08T14:17:54;6.10;99.90
27224;DHT22;14965;50.660;13.226;2024-03-08T14:20:21;6.20;99.90
27224;DHT22;14965;50.660;13.226;2024-03-08T14:22:47;6.30;99.90
27224;DHT22;14965;50.660;13.226;2024-03-08T14:25:13;6.30;99.90
27224;DHT22;14965;50.660;13.226;2024-03-08T14:27:39;6.20;99.90
27224;DHT22;14965;50.660;13.226;2024-03-08T14:30:08;6.20;99.90
27224;DHT22;14965;50.660;13.226;2024-03-08T14:32:34;6.30;99.90
27224;DHT22;14965;50.660;13.226;2024-03-08T14:35:00;6.30;99.90
27224;DHT22;14965;50.660;13.226;2024-03-08T14:37:26;6.30;99.90
27224;DHT22;14965;50.660;13.226;2024-03-08T14:39:51;6.30;99.90
27224;DHT22;14965;50.660;13.226;2024-03-08T14:42:17;6.50;99.90
27224;DHT22;14965;50.660;13.226;2024-03-08T14:44:43;6.50;99.90
27224;DHT22;14965;50.660;13.226;2024-03-08T14:47:10;6.50;99.90
27224;DHT22;14965;50.660;13.226;2024-03-08T14:49:36;6.40;99.90
27224;DHT22;14965;50.660;13.226;2024-03-08T14:52:02;6.30;99.90
27224;DHT22;14965;50.660;13.226;2024-03-08T14:54:29;6.40;99.90
27224;DHT22;14965;50.660;13.226;2024-03-08T14:56:55;6.40;99.90
27224;DHT22;14965;50.660;13.226;2024-03-08T14:59:20;6.50;99.90
27224;DHT22;14965;50.660;13.226;2024-03-08T15:01:46;6.40;99.90
27224;DHT22;14965;50.660;13.226;2024-03-08T15:04:14;6.30;99.90
27224;DHT22;14965;50.660;13.226;2024-03-08T15:06:40;6.20;99.90
27224;DHT22;14965;50.660;13.226;2024-03-08T15:09:06;6.20;99.90
27224;DHT22;14965;50.660;13.226;2024-03-08T15:11:32;6.10;99.90
27224;DHT22;14965;50.660;13.226;2024-03-08T15:13:58;6.10;99.90
27224;DHT22;14965;50.660;13.226;2024-03-08T15:16:24;6.20;99.90
27224;DHT22;14965;50.660;13.226;2024-03-08T15:18:50;6.20;99.90
27224;DHT22;14965;50.660;13.226;2024-03-08T15:21:17;6.10;99.90
27224;DHT22;14965;50.660;13.226;2024-03-08T15:23:43;6.10;99.90
27224;DHT22;14965;50.660;13.226;2024-03-08T15:26:09;6.00;99.90
27224;DHT22;14965;50.660;13.226;2024-03-08T15:28:35;5.90;99.90
27224;DHT22;14965;50.660;13.226;2024-03-08T15:31:02;5.80;99.90